Time;durP1;ratioP1;P1;durP2;ratioP2;P2;SDS_P1;SDS_P2;PMS_P1;PMS_P2;Temp;Humidity;BMP_temperature;BMP_pressure;BME280_temperature;BME280_humidity;BME280_pressure;Samples;Min_cycle;Max_cycle;Signal;HPM_P1;HPM_P2
2022/01/25 00:15:03;;;;;;;60.73;40.17;;;4.00;99.90;;;;;;5075158;27;38063;-75
2022/01/25 00:29:55;;;;;;;60.33;40.78;;;4.20;99.90;;;;;;5078119;28;38304;-75
2022/01/25 00:32:20;;;;;;;59.07;41.23;;;4.30;99.90;;;;;;5077415;27;37241;-75
2022/01/25 00:34:46;;;;;;;60.77;41.00;;;4.40;99.90;;;;;;5080080;28;39631;-75
2022/01/25 00:37:13;;;;;;;62.60;42.53;;;4.40;99.90;;;;;;5074001;27;38731;-75
2022/01/25 00:39:41;;;;;;;62.60;43.73;;;4.40;99.90;;;;;;5059451;28;37110;-75
2022/01/25 00:42:09;;;;;;;62.00;43.03;;;4.50;99.90;;;;;;5056710;28;37903;-75
2022/01/25 00:44:38;;;;;;;61.37;41.33;;;4.40;99.90;;;;;;5077684;28;38741;-75
2022/01/25 00:47:08;;;;;;;62.37;41.00;;;4.40;99.90;;;;;;5056478;28;39084;-75
2022/01/25 00:49:38;;;;;;;61.57;42.87;;;4.50;99.90;;;;;;5078462;28;38082;-75
2022/01/25 00:52:23;;;;;;;60.57;40.97;;;4.40;99.90;;;;;;5072025;27;36627;-75
2022/01/25 00:54:51;;;;;;;57.90;40.37;;;4.40;99.90;;;;;;5076960;28;39771;-76
2022/01/25 00:57:18;;;;;;;62.80;43.43;;;4.40;99.90;;;;;;5057677;28;39073;-75
2022/01/25 00:59:44;;;;;;;62.33;41.77;;;4.40;99.90;;;;;;5060341;28;39560;-76
2022/01/25 01:02:12;;;;;;;61.80;42.77;;;4.40;99.90;;;;;;5055327;28;37564;-75
2022/01/25 01:04:41;;;;;;;67.60;44.33;;;4.30;99.90;;;;;;5060426;28;38770;-75
2022/01/25 01:07:11;;;;;;;62.30;43.37;;;4.30;99.90;;;;;;5076042;27;38325;-75
2022/01/25 01:09:40;;;;;;;62.57;42.80;;;4.30;99.90;;;;;;5055765;28;39329;-75
2022/01/25 01:12:15;;;;;;;65.07;44.07;;;4.30;99.90;;;;;;5074081;27;38156;-75
2022/01/25 01:28:50;;;;;;;59.33;42.50;;;4.30;99.90;;;;;;5076748;27;38522;-75
2022/01/25 01:31:36;;;;;;;67.47;45.73;;;4.20;99.90;;;;;;5077060;28;39536;-75
2022/01/25 01:40:00;;;;;;;67.03;44.27;;;4.10;99.90;;;;;;5079972;28;50486;-75
2022/01/25 01:42:51;;;;;;;66.73;45.83;;;4.20;99.90;;;;;;5058488;28;38561;-75
2022/01/25 01:48:01;;;;;;;66.37;45.73;;;4.20;99.90;;;;;;5079597;28;38930;-74
2022/01/25 01:50:31;;;;;;;67.00;45.80;;;4.20;99.90;;;;;;5077504;28;48836;-74
2022/01/25 01:52:57;;;;;;;71.20;47.70;;;4.20;99.90;;;;;;5077954;27;38299;-75
2022/01/25 01:55:25;;;;;;;69.23;47.37;;;4.20;99.90;;;;;;5057105;27;36445;-75
2022/01/25 01:57:52;;;;;;;70.50;48.10;;;4.30;99.90;;;;;;5058224;28;38799;-76
2022/01/25 02:00:23;;;;;;;67.57;45.57;;;4.30;99.90;;;;;;5072698;28;38436;-75
2022/01/25 02:02:49;;;;;;;68.27;47.10;;;4.30;99.90;;;;;;5056599;28;38145;-74
2022/01/25 02:05:16;;;;;;;70.87;46.97;;;4.30;99.90;;;;;;5074202;28;37600;-75
2022/01/25 02:07:42;;;;;;;68.37;47.33;;;4.40;99.90;;;;;;5078923;27;39836;-75
2022/01/25 02:10:09;;;;;;;64.33;45.10;;;4.40;99.90;;;;;;5075200;27;39720;-75
2022/01/25 02:12:35;;;;;;;69.53;46.50;;;4.40;99.90;;;;;;5073648;27;38809;-75
2022/01/25 02:15:03;;;;;;;73.40;48.77;;;4.40;99.90;;;;;;5055942;28;36351;-75
2022/01/25 02:22:56;;;;;;;67.10;45.93;;;4.40;99.90;;;;;;5068505;28;47199;-75
2022/01/25 02:25:23;;;;;;;70.60;47.90;;;4.40;99.90;;;;;;5069089;28;35294;-75
2022/01/25 02:27:49;;;;;;;72.33;47.57;;;4.40;99.90;;;;;;5076688;27;39628;-77
2022/01/25 02:30:16;;;;;;;68.77;46.30;;;4.40;99.90;;;;;;5056473;27;38891;-76
2022/01/25 02:32:42;;;;;;;67.77;45.23;;;4.50;99.90;;;;;;5076459;27;38245;-75
2022/01/25 02:35:09;;;;;;;65.63;46.23;;;4.50;99.90;;;;;;5071064;28;38291;-75
2022/01/25 02:37:35;;;;;;;75.57;50.10;;;4.50;99.90;;;;;;5047706;28;37798;-75
2022/01/25 02:40:02;;;;;;;69.77;48.60;;;4.50;99.90;;;;;;5033083;28;37319;-77
2022/01/25 02:42:28;;;;;;;69.43;46.53;;;4.50;99.90;;;;;;5037504;28;37190;-78
2022/01/25 02:44:55;;;;;;;72.13;48.90;;;4.50;99.90;;;;;;5039033;28;36762;-75
2022/01/25 02:50:06;;;;;;;72.80;49.50;;;4.50;99.90;;;;;;5035140;28;39086;-76
2022/01/25 02:52:33;;;;;;;72.03;49.63;;;4.60;99.90;;;;;;5033975;28;37497;-76
2022/01/25 02:54:59;;;;;;;72.67;49.60;;;4.60;99.90;;;;;;5035234;28;38179;-76
2022/01/25 02:57:26;;;;;;;75.00;50.63;;;4.60;99.90;;;;;;5036647;28;40024;-78
2022/01/25 02:59:52;;;;;;;71.53;49.13;;;4.70;99.90;;;;;;5033957;28;38045;-78
2022/01/25 03:02:19;;;;;;;73.63;49.50;;;4.70;99.90;;;;;;5034929;28;39615;-75
2022/01/25 03:04:45;;;;;;;70.00;47.03;;;4.70;99.90;;;;;;5037255;28;38092;-78
2022/01/25 03:07:11;;;;;;;78.17;51.70;;;4.70;99.90;;;;;;5039463;28;39346;-77
2022/01/25 03:09:40;;;;;;;72.83;49.63;;;4.70;99.90;;;;;;5038767;28;39946;-77
2022/01/25 03:12:10;;;;;;;78.83;52.83;;;4.70;99.90;;;;;;5030332;28;38960;-75
2022/01/25 03:14:47;;;;;;;66.83;46.63;;;4.70;99.90;;;;;;5038295;28;37326;-78
2022/01/25 03:17:23;;;;;;;68.47;47.20;;;4.70;99.90;;;;;;5037767;28;40957;-77
2022/01/25 03:20:01;;;;;;;76.17;50.10;;;4.70;99.90;;;;;;5040657;28;39252;-77
2022/01/25 03:25:26;;;;;;;68.27;46.70;;;4.70;99.90;;;;;;4994223;28;37845;-76
2022/01/25 03:27:53;;;;;;;70.53;46.43;;;4.70;99.90;;;;;;5039430;28;38918;-77
2022/01/25 03:30:19;;;;;;;72.20;47.43;;;4.70;99.90;;;;;;5034366;28;39132;-77
2022/01/25 03:32:45;;;;;;;70.13;48.33;;;4.70;99.90;;;;;;5038688;28;38933;-77
2022/01/25 03:35:11;;;;;;;71.50;46.73;;;4.70;99.90;;;;;;5038247;28;37510;-77
2022/01/25 03:37:37;;;;;;;76.80;50.13;;;4.70;99.90;;;;;;5077287;27;38360;-77
2022/01/25 03:40:04;;;;;;;71.77;49.47;;;4.70;99.90;;;;;;5075719;28;38017;-77
2022/01/25 03:42:35;;;;;;;71.97;48.97;;;4.70;99.90;;;;;;5059829;28;39602;-77
2022/01/25 03:45:02;;;;;;;70.90;48.13;;;4.70;99.90;;;;;;5076128;28;37291;-77
2022/01/25 03:47:42;;;;;;;71.03;48.50;;;4.70;99.90;;;;;;5058677;28;39438;-76
2022/01/25 03:50:09;;;;;;;68.43;48.13;;;4.70;99.90;;;;;;5055938;27;38536;-77
2022/01/25 03:52:37;;;;;;;74.63;50.67;;;4.80;99.90;;;;;;5077967;27;37118;-77
2022/01/25 03:55:04;;;;;;;72.37;48.50;;;4.80;99.90;;;;;;5073616;28;37487;-77
2022/01/25 03:57:31;;;;;;;76.77;50.37;;;4.80;99.90;;;;;;5058470;28;47031;-77
2022/01/25 03:59:59;;;;;;;75.27;49.53;;;4.70;99.90;;;;;;5058525;28;38608;-77
2022/01/25 04:02:29;;;;;;;72.03;48.23;;;4.70;99.90;;;;;;5077253;27;39044;-76
2022/01/25 04:04:57;;;;;;;72.37;49.70;;;4.70;99.90;;;;;;5059799;28;37541;-76
2022/01/25 04:07:31;;;;;;;70.83;48.77;;;4.70;99.90;;;;;;5058404;28;38683;-76
2022/01/25 04:09:57;;;;;;;72.07;49.03;;;4.70;99.90;;;;;;5060111;28;38763;-76
2022/01/25 04:12:23;;;;;;;78.13;49.57;;;4.70;99.90;;;;;;5076747;28;38862;-76
2022/01/25 04:14:50;;;;;;;73.10;49.33;;;4.70;99.90;;;;;;5059670;28;38898;-76
2022/01/25 04:17:19;;;;;;;74.33;49.20;;;4.70;99.90;;;;;;5052551;28;38936;-76
2022/01/25 04:19:58;;;;;;;73.13;48.37;;;4.70;99.90;;;;;;5078276;28;39342;-75
2022/01/25 04:25:06;;;;;;;72.50;48.37;;;4.70;99.90;;;;;;5079421;28;38518;-76
2022/01/25 04:27:33;;;;;;;78.47;50.65;;;4.70;99.90;;;;;;5074919;28;48642;-75
2022/01/25 04:30:00;;;;;;;77.07;51.50;;;4.70;99.90;;;;;;5058423;28;38273;-75
2022/01/25 04:33:03;;;;;;;76.27;51.63;;;4.60;99.90;;;;;;5056921;28;41495;-75
2022/01/25 04:48:57;;;;;;;78.33;51.00;;;4.70;99.90;;;;;;5075662;28;42603;-78
2022/01/25 04:51:44;;;;;;;84.60;55.20;;;4.70;99.90;;;;;;5072986;28;38825;-78
2022/01/25 04:59:22;;;;;;;79.67;52.03;;;4.70;99.90;;;;;;5078375;28;38630;-77
2022/01/25 05:01:51;;;;;;;82.47;50.47;;;4.70;99.90;;;;;;5076922;27;39034;-77
2022/01/25 05:04:25;;;;;;;81.33;52.53;;;4.70;99.90;;;;;;5077135;28;38685;-77
2022/01/25 05:06:55;;;;;;;84.37;53.37;;;4.70;99.90;;;;;;5058899;28;37934;-77
2022/01/25 05:09:21;;;;;;;79.50;50.77;;;4.70;99.90;;;;;;5057905;28;40703;-77
2022/01/25 05:11:49;;;;;;;76.13;48.73;;;4.70;99.90;;;;;;5066346;27;37283;-77
2022/01/25 05:14:21;;;;;;;76.03;50.63;;;4.70;99.90;;;;;;5053710;28;41338;-76
2022/01/25 05:16:50;;;;;;;78.50;49.87;;;4.70;99.90;;;;;;5074819;28;37263;-77
2022/01/25 05:24:28;;;;;;;78.00;50.33;;;4.70;99.90;;;;;;5076739;28;49472;-77
2022/01/25 05:26:55;;;;;;;80.63;52.37;;;4.60;99.90;;;;;;5077715;27;37430;-77
2022/01/25 05:29:21;;;;;;;87.40;55.03;;;4.70;99.90;;;;;;5079068;28;37667;-77
2022/01/25 05:31:47;;;;;;;86.27;52.77;;;4.60;99.90;;;;;;5056715;28;38535;-77
2022/01/25 05:34:13;;;;;;;80.87;53.27;;;4.60;99.90;;;;;;5057916;27;39605;-75
2022/01/25 05:36:42;;;;;;;85.17;53.43;;;4.70;99.90;;;;;;5077314;27;38244;-77
2022/01/25 05:39:13;;;;;;;84.70;53.27;;;4.70;99.90;;;;;;5056604;28;40366;-77
2022/01/25 05:41:40;;;;;;;91.13;55.23;;;4.70;99.90;;;;;;5058739;28;38976;-77
2022/01/25 05:46:47;;;;;;;84.82;51.08;;;4.70;99.90;;;;;;5075155;27;38715;-77
2022/01/25 05:49:13;;;;;;;88.93;53.43;;;4.70;99.90;;;;;;5056364;28;38569;-77
2022/01/25 05:51:39;;;;;;;81.30;51.37;;;4.60;99.90;;;;;;5058294;28;38726;-74
2022/01/25 05:54:05;;;;;;;87.17;52.20;;;4.60;99.90;;;;;;5057361;28;38374;-76
2022/01/25 05:56:31;;;;;;;85.50;53.77;;;4.60;99.90;;;;;;5070912;28;37612;-77
2022/01/25 05:58:57;;;;;;;81.73;52.20;;;4.60;99.90;;;;;;5053847;28;40069;-77
2022/01/25 06:01:24;;;;;;;85.17;53.30;;;4.70;99.90;;;;;;5074289;28;38453;-77
2022/01/25 06:03:50;;;;;;;82.70;52.17;;;4.60;99.90;;;;;;5054827;28;39382;-77
2022/01/25 06:06:16;;;;;;;90.00;56.57;;;4.60;99.90;;;;;;5059106;27;37670;-77
2022/01/25 06:08:42;;;;;;;84.60;52.13;;;4.70;99.90;;;;;;5058870;28;40894;-77
2022/01/25 06:11:08;;;;;;;81.60;51.90;;;4.70;99.90;;;;;;5052652;27;38388;-77
2022/01/25 06:13:34;;;;;;;85.10;53.00;;;4.70;99.90;;;;;;5057348;28;39818;-77
2022/01/25 06:16:00;;;;;;;83.20;53.40;;;4.70;99.90;;;;;;5075665;27;37178;-77
2022/01/25 06:18:26;;;;;;;86.83;53.53;;;4.70;99.90;;;;;;5055424;28;40629;-76
2022/01/25 06:20:52;;;;;;;85.37;53.60;;;4.70;99.90;;;;;;5075515;27;38562;-76
2022/01/25 06:23:18;;;;;;;83.60;52.33;;;4.70;99.90;;;;;;5057154;28;39520;-77
2022/01/25 06:25:44;;;;;;;87.80;54.33;;;4.80;99.90;;;;;;5071724;27;37663;-77
2022/01/25 06:28:10;;;;;;;84.33;52.60;;;4.80;99.90;;;;;;5053966;28;40592;-78
2022/01/25 06:30:36;;;;;;;86.93;53.10;;;4.70;99.90;;;;;;5077636;27;38617;-77
2022/01/25 06:33:03;;;;;;;83.67;52.70;;;4.80;99.90;;;;;;5072351;28;38108;-77
2022/01/25 06:35:31;;;;;;;86.43;54.03;;;4.80;99.90;;;;;;5057342;28;38967;-77
2022/01/25 06:37:57;;;;;;;85.70;53.80;;;4.80;99.90;;;;;;5055369;28;38234;-77
2022/01/25 06:40:24;;;;;;;85.43;53.50;;;4.80;99.90;;;;;;5058862;27;38457;-77
2022/01/25 06:42:51;;;;;;;88.27;54.40;;;4.80;99.90;;;;;;5077376;27;38042;-77
2022/01/25 06:45:20;;;;;;;83.47;53.87;;;4.80;99.90;;;;;;5057713;28;38034;-77
2022/01/25 06:47:47;;;;;;;85.93;53.53;;;4.80;99.90;;;;;;5054633;28;39104;-77
2022/01/25 06:50:17;;;;;;;84.50;53.07;;;4.80;99.90;;;;;;5071923;28;37576;-77
2022/01/25 06:52:44;;;;;;;94.93;55.40;;;4.80;99.90;;;;;;5071936;27;38091;-77
2022/01/25 06:55:16;;;;;;;88.67;55.70;;;4.80;99.90;;;;;;5074611;27;37804;-77
2022/01/25 06:57:43;;;;;;;86.28;53.17;;;4.80;99.90;;;;;;5072993;28;38669;-77
2022/01/25 07:00:16;;;;;;;89.73;56.17;;;4.80;99.90;;;;;;5073683;28;38459;-76
2022/01/25 07:02:42;;;;;;;86.77;53.23;;;4.80;99.90;;;;;;5055567;28;39992;-77
2022/01/25 07:05:09;;;;;;;83.60;52.83;;;4.80;99.90;;;;;;5053482;27;37934;-76
2022/01/25 07:07:37;;;;;;;88.30;55.23;;;4.80;99.90;;;;;;5076795;27;37443;-76
2022/01/25 07:10:05;;;;;;;83.17;51.60;;;4.80;99.90;;;;;;5054765;28;40238;-76
2022/01/25 07:12:31;;;;;;;92.93;55.90;;;4.70;99.90;;;;;;5069943;27;47812;-76
2022/01/25 07:14:57;;;;;;;93.67;55.97;;;4.80;99.90;;;;;;5075114;28;37128;-77
2022/01/25 07:17:23;;;;;;;93.00;56.27;;;4.70;99.90;;;;;;5072241;27;38427;-77
2022/01/25 07:19:50;;;;;;;95.67;56.40;;;4.70;99.90;;;;;;5051155;28;37804;-77
2022/01/25 07:22:17;;;;;;;91.60;54.80;;;4.70;99.90;;;;;;5055802;28;38571;-76
2022/01/25 07:24:43;;;;;;;89.83;54.67;;;4.80;99.90;;;;;;5073115;28;37537;-77
2022/01/25 07:27:09;;;;;;;91.07;54.07;;;4.80;99.90;;;;;;5071189;27;39616;-79
2022/01/25 07:29:36;;;;;;;93.27;54.97;;;4.80;99.90;;;;;;5075143;28;38436;-79
2022/01/25 07:32:02;;;;;;;87.50;54.03;;;4.80;99.90;;;;;;5074221;27;38000;-78
2022/01/25 07:34:29;;;;;;;90.97;55.13;;;4.80;99.90;;;;;;5073220;28;37270;-78
2022/01/25 07:36:55;;;;;;;92.73;55.50;;;4.80;99.90;;;;;;5054094;28;37730;-78
2022/01/25 07:39:21;;;;;;;94.63;54.87;;;4.90;99.90;;;;;;5056450;28;37330;-78
2022/01/25 07:41:47;;;;;;;86.73;53.77;;;4.90;99.90;;;;;;5053551;28;39076;-78
2022/01/25 07:44:15;;;;;;;90.43;54.67;;;4.80;99.90;;;;;;5074544;28;38202;-78
2022/01/25 07:46:41;;;;;;;92.33;55.53;;;4.80;99.90;;;;;;5053771;28;38333;-78
2022/01/25 07:49:07;;;;;;;94.23;56.33;;;4.80;99.90;;;;;;5071268;28;38548;-78
2022/01/25 07:51:35;;;;;;;97.67;57.37;;;4.80;99.90;;;;;;5053403;28;39532;-78
2022/01/25 07:54:02;;;;;;;91.97;56.30;;;4.80;99.90;;;;;;5058318;28;38186;-78
2022/01/25 07:56:28;;;;;;;93.47;54.23;;;4.80;99.90;;;;;;5059172;28;47539;-78
2022/01/25 07:58:54;;;;;;;89.00;53.47;;;4.80;99.90;;;;;;5056392;28;39615;-78
2022/01/25 08:01:20;;;;;;;98.70;57.17;;;4.80;99.90;;;;;;5079743;27;38292;-79
2022/01/25 08:03:47;;;;;;;93.47;56.00;;;4.80;99.90;;;;;;5077051;28;37581;-79
2022/01/25 08:06:13;;;;;;;89.53;54.90;;;4.80;99.90;;;;;;5057456;27;39457;-78
2022/01/25 08:08:43;;;;;;;92.00;53.87;;;4.80;99.90;;;;;;5059237;28;39138;-78
2022/01/25 08:11:09;;;;;;;90.57;55.30;;;4.90;99.90;;;;;;5077515;27;38196;-78
2022/01/25 08:13:38;;;;;;;90.47;54.10;;;4.80;99.90;;;;;;5080051;28;37360;-77
2022/01/25 08:16:04;;;;;;;91.10;55.53;;;4.80;99.90;;;;;;5054516;27;40362;-78
2022/01/25 08:18:30;;;;;;;90.30;54.90;;;4.90;99.90;;;;;;5077100;28;39460;-76
2022/01/25 08:20:56;;;;;;;87.53;53.13;;;4.90;99.90;;;;;;5057079;28;37068;-78
2022/01/25 08:23:23;;;;;;;88.47;53.20;;;4.90;99.90;;;;;;5074536;28;36998;-78
2022/01/25 08:25:49;;;;;;;91.07;53.57;;;4.90;99.90;;;;;;5079202;28;39003;-77
2022/01/25 08:28:16;;;;;;;89.03;53.93;;;4.90;99.90;;;;;;5057593;28;38654;-78
2022/01/25 08:30:42;;;;;;;90.43;54.73;;;4.80;99.90;;;;;;5080903;27;39118;-77
2022/01/25 08:33:08;;;;;;;92.93;55.53;;;4.80;99.90;;;;;;5076219;27;37238;-77
2022/01/25 08:35:35;;;;;;;91.33;54.57;;;4.90;99.90;;;;;;5057265;28;40041;-77
2022/01/25 08:38:01;;;;;;;92.83;53.83;;;4.80;99.90;;;;;;5075077;27;39473;-77
2022/01/25 08:40:27;;;;;;;87.93;53.33;;;4.90;99.90;;;;;;5059794;27;46509;-77
2022/01/25 08:42:53;;;;;;;92.47;54.70;;;4.90;99.90;;;;;;5055810;28;38252;-78
2022/01/25 08:45:19;;;;;;;90.00;53.10;;;4.90;99.90;;;;;;5055435;27;39444;-78
2022/01/25 08:47:45;;;;;;;88.80;54.00;;;5.00;99.90;;;;;;5058404;28;39777;-77
2022/01/25 08:50:11;;;;;;;95.17;55.77;;;5.00;99.90;;;;;;5073496;27;38585;-77
2022/01/25 08:52:38;;;;;;;94.30;56.03;;;4.90;99.90;;;;;;5060201;28;37794;-77
2022/01/25 08:55:06;;;;;;;95.30;54.80;;;4.90;99.90;;;;;;5058222;28;39988;-75
2022/01/25 08:57:32;;;;;;;96.13;55.87;;;4.90;99.90;;;;;;5075527;28;38613;-76
2022/01/25 08:59:58;;;;;;;92.83;54.77;;;4.80;99.90;;;;;;5061754;28;38850;-75
2022/01/25 09:02:24;;;;;;;94.97;55.57;;;4.90;99.90;;;;;;5076958;27;38004;-75
2022/01/25 09:04:50;;;;;;;86.20;52.23;;;4.80;99.90;;;;;;5064087;28;40009;-78
2022/01/25 09:07:16;;;;;;;92.70;54.70;;;4.90;99.90;;;;;;5062643;28;35862;-77
2022/01/25 09:09:43;;;;;;;89.93;54.33;;;4.90;99.90;;;;;;5059779;28;38718;-78
2022/01/25 09:12:10;;;;;;;91.90;54.47;;;5.00;99.90;;;;;;5065279;28;39103;-75
2022/01/25 09:14:36;;;;;;;90.63;53.80;;;5.00;99.90;;;;;;5060811;28;39096;-78
2022/01/25 09:17:02;;;;;;;94.87;56.30;;;5.00;99.90;;;;;;5061137;28;38385;-78
2022/01/25 09:19:28;;;;;;;92.47;54.63;;;5.00;99.90;;;;;;5057918;28;38581;-78
2022/01/25 09:21:54;;;;;;;82.37;51.00;;;5.10;99.90;;;;;;5063782;28;39266;-78
2022/01/25 09:24:21;;;;;;;88.73;52.27;;;5.20;99.90;;;;;;5080034;28;39494;-78
2022/01/25 09:26:47;;;;;;;91.60;54.07;;;5.20;99.90;;;;;;5083105;27;36745;-78
2022/01/25 09:29:13;;;;;;;89.83;54.00;;;5.20;99.90;;;;;;5060528;28;38414;-79
2022/01/25 09:31:39;;;;;;;86.73;53.27;;;5.20;99.90;;;;;;5060211;28;37379;-77
2022/01/25 09:34:05;;;;;;;86.47;53.20;;;5.20;99.90;;;;;;5060546;28;39920;-77
2022/01/25 09:36:31;;;;;;;88.57;55.17;;;5.20;99.90;;;;;;5076692;27;38770;-78
2022/01/25 09:38:57;;;;;;;87.27;55.00;;;5.20;99.90;;;;;;5077471;28;38045;-78
2022/01/25 09:41:24;;;;;;;91.23;54.87;;;5.30;99.90;;;;;;5076708;27;38362;-78
2022/01/25 09:43:50;;;;;;;88.80;53.90;;;5.30;99.90;;;;;;5058595;28;39100;-78
2022/01/25 09:46:17;;;;;;;94.50;54.50;;;5.20;99.90;;;;;;5057226;27;39264;-77
2022/01/25 09:48:43;;;;;;;89.83;55.57;;;5.00;99.90;;;;;;5075504;28;38048;-78
2022/01/25 09:51:10;;;;;;;84.77;52.13;;;5.10;99.90;;;;;;5079793;28;37539;-77
2022/01/25 09:53:39;;;;;;;84.57;53.37;;;5.20;99.90;;;;;;5062691;28;37871;-77
2022/01/25 09:56:06;;;;;;;87.70;52.53;;;5.20;99.90;;;;;;5071867;27;38628;-78
2022/01/25 09:58:32;;;;;;;84.93;52.90;;;5.20;99.90;;;;;;5080869;28;38393;-78
2022/01/25 10:01:01;;;;;;;84.30;52.07;;;5.30;99.90;;;;;;5057520;28;37622;-77
2022/01/25 10:03:34;;;;;;;86.27;52.53;;;5.30;99.90;;;;;;5058118;28;47404;-77
2022/01/25 10:06:02;;;;;;;85.97;52.83;;;5.40;99.90;;;;;;5055901;28;38562;-80
2022/01/25 10:08:37;;;;;;;93.00;55.93;;;5.50;99.90;;;;;;5060865;28;47327;-80
2022/01/25 10:11:15;;;;;;;83.13;50.80;;;5.50;99.90;;;;;;5076770;27;38092;-80
2022/01/25 10:13:48;;;;;;;90.80;55.13;;;5.50;99.90;;;;;;5058243;28;39291;-80
2022/01/25 10:16:18;;;;;;;87.73;52.97;;;5.40;99.90;;;;;;5066206;28;37698;-79
2022/01/25 10:18:50;;;;;;;85.03;51.97;;;5.40;99.90;;;;;;5080659;28;38725;-80
2022/01/25 10:21:21;;;;;;;91.50;54.00;;;5.50;99.90;;;;;;5058961;27;37005;-80
2022/01/25 10:24:06;;;;;;;86.50;52.50;;;5.50;99.90;;;;;;5060878;28;39112;-80
2022/01/25 10:26:40;;;;;;;95.10;56.73;;;5.50;99.90;;;;;;5074825;27;47275;-80
2022/01/25 10:29:08;;;;;;;90.33;55.10;;;5.50;99.90;;;;;;5056010;28;36770;-80
2022/01/25 10:31:40;;;;;;;87.57;53.27;;;5.50;99.90;;;;;;5078228;27;37443;-80
2022/01/25 10:34:09;;;;;;;88.77;54.60;;;5.50;99.90;;;;;;5061094;28;37889;-80
2022/01/25 10:36:43;;;;;;;91.33;54.20;;;5.50;99.90;;;;;;5057007;28;39282;-80
2022/01/25 10:39:09;;;;;;;92.90;54.70;;;5.50;99.90;;;;;;5077314;28;38894;-80
2022/01/25 10:41:35;;;;;;;89.80;55.50;;;5.50;99.90;;;;;;5056306;28;36417;-81
2022/01/25 10:44:02;;;;;;;83.23;50.60;;;5.60;99.90;;;;;;5056340;28;41082;-79
2022/01/25 10:46:31;;;;;;;85.97;51.97;;;5.60;99.90;;;;;;5078240;27;37909;-80
2022/01/25 10:49:04;;;;;;;89.90;51.63;;;5.70;99.90;;;;;;5076998;28;38560;-80
2022/01/25 10:51:39;;;;;;;80.93;51.10;;;5.60;99.90;;;;;;5058730;28;47858;-81
2022/01/25 10:54:08;;;;;;;78.73;48.07;;;5.80;99.90;;;;;;5059376;28;37641;-81
2022/01/25 10:56:59;;;;;;;83.67;51.80;;;5.80;99.90;;;;;;5063550;28;39970;-80
2022/01/25 10:59:32;;;;;;;84.73;51.70;;;5.90;99.90;;;;;;5072808;28;38213;-80
2022/01/25 11:02:01;;;;;;;85.45;53.28;;;5.90;99.90;;;;;;5056952;28;38566;-80
2022/01/25 11:04:32;;;;;;;88.83;53.77;;;6.00;99.90;;;;;;5073789;28;48475;-80
2022/01/25 11:07:04;;;;;;;82.57;50.80;;;6.00;99.90;;;;;;5059187;28;38683;-80
2022/01/25 11:09:39;;;;;;;81.75;50.42;;;6.00;99.90;;;;;;5055251;28;47369;-79
2022/01/25 11:12:08;;;;;;;81.10;50.57;;;6.00;99.90;;;;;;5057974;28;39143;-79
2022/01/25 11:14:50;;;;;;;88.17;53.50;;;6.10;99.90;;;;;;5080621;28;39579;-79
2022/01/25 11:17:39;;;;;;;85.80;50.80;;;6.10;99.90;;;;;;5076888;27;39074;-79
2022/01/25 11:20:06;;;;;;;83.30;53.23;;;6.10;99.90;;;;;;5058248;28;37408;-79
2022/01/25 11:22:33;;;;;;;83.90;51.50;;;6.10;99.90;;;;;;5061695;28;36503;-80
2022/01/25 11:25:04;;;;;;;90.13;54.50;;;6.10;99.90;;;;;;5063885;28;39448;-80
2022/01/25 11:27:31;;;;;;;87.77;53.40;;;6.00;99.90;;;;;;5062401;28;46901;-79
2022/01/25 11:30:03;;;;;;;89.33;55.07;;;6.00;99.90;;;;;;5062495;28;38978;-79
2022/01/25 11:32:38;;;;;;;87.30;52.40;;;5.90;99.90;;;;;;5066251;28;47236;-79
2022/01/25 11:35:08;;;;;;;85.40;51.03;;;5.90;99.90;;;;;;5063235;27;40695;-79
2022/01/25 11:37:37;;;;;;;87.50;52.83;;;6.00;99.90;;;;;;5085740;28;38414;-79
2022/01/25 11:40:18;;;;;;;89.20;53.67;;;6.00;99.90;;;;;;5061391;28;40616;-79
2022/01/25 11:42:50;;;;;;;86.70;53.83;;;5.90;99.90;;;;;;5060319;28;47446;-80
2022/01/25 11:45:21;;;;;;;84.90;51.87;;;6.00;99.90;;;;;;5080643;27;38351;-79
2022/01/25 11:47:49;;;;;;;89.77;52.87;;;6.00;99.90;;;;;;5083283;28;38495;-80
2022/01/25 11:50:15;;;;;;;84.10;50.83;;;6.00;99.90;;;;;;5085011;27;37985;-79
2022/01/25 11:52:50;;;;;;;85.83;51.70;;;5.90;99.90;;;;;;5084267;28;37203;-80
2022/01/25 11:55:16;;;;;;;88.07;53.77;;;5.90;99.90;;;;;;5083364;27;39415;-79
2022/01/25 11:58:06;;;;;;;83.90;51.60;;;5.80;99.90;;;;;;5081636;28;38608;-80
2022/01/25 12:00:47;;;;;;;87.97;52.23;;;5.80;99.90;;;;;;5081326;28;48307;-79
2022/01/25 12:03:33;;;;;;;85.60;51.90;;;5.80;99.90;;;;;;5060539;28;37311;-79
2022/01/25 12:06:09;;;;;;;86.17;52.03;;;5.80;99.90;;;;;;5063627;28;39659;-80
2022/01/25 12:09:42;;;;;;;86.00;53.17;;;5.90;99.90;;;;;;5079461;28;48260;-80
2022/01/25 12:11:47;;;;;;;90.07;52.90;;;6.00;99.90;;;;;;5064364;28;39472;-80
2022/01/25 12:14:40;;;;;;;85.53;51.37;;;5.80;99.90;;;;;;5080941;28;38161;-79
2022/01/25 12:17:06;;;;;;;88.68;52.88;;;5.80;99.90;;;;;;5063247;27;40290;-80
2022/01/25 12:19:45;;;;;;;82.30;50.23;;;5.80;99.90;;;;;;5082074;28;38772;-79
2022/01/25 12:22:28;;;;;;;87.80;52.27;;;5.90;99.90;;;;;;5077784;27;37452;-80
2022/01/25 12:25:17;;;;;;;89.80;54.38;;;5.90;99.90;;;;;;5081102;28;36337;-80
2022/01/25 12:27:58;;;;;;;89.23;51.43;;;5.90;99.90;;;;;;5065014;28;48477;-80
2022/01/25 12:30:41;;;;;;;83.63;50.70;;;5.90;99.90;;;;;;5062386;27;38599;-79
2022/01/25 12:33:24;;;;;;;84.18;51.75;;;5.80;99.90;;;;;;5058723;28;37217;-80
2022/01/25 12:35:52;;;;;;;90.35;54.08;;;5.90;99.90;;;;;;5064788;28;37469;-79
2022/01/25 12:38:25;;;;;;;86.83;52.27;;;5.90;99.90;;;;;;5065160;28;38722;-79
2022/01/25 12:41:08;;;;;;;86.63;52.47;;;5.90;99.90;;;;;;5078923;27;39091;-79
2022/01/25 12:43:38;;;;;;;90.40;53.70;;;5.90;99.90;;;;;;5071484;28;47742;-79
2022/01/25 12:46:19;;;;;;;88.50;52.97;;;5.90;99.90;;;;;;5080074;27;36170;-79
2022/01/25 12:48:57;;;;;;;84.87;51.50;;;5.80;99.90;;;;;;5083616;28;40765;-80
2022/01/25 12:51:29;;;;;;;83.87;51.30;;;5.80;99.90;;;;;;5058652;27;37129;-80
2022/01/25 12:53:57;;;;;;;87.10;51.73;;;5.90;99.90;;;;;;5063247;28;38266;-80
2022/01/25 12:56:31;;;;;;;84.60;51.47;;;5.90;99.90;;;;;;5082697;27;37559;-79
2022/01/25 12:59:04;;;;;;;85.00;52.00;;;5.90;99.90;;;;;;5065415;28;37805;-80
2022/01/25 13:01:31;;;;;;;89.20;52.07;;;5.90;99.90;;;;;;5077582;28;47663;-79
2022/01/25 13:03:59;;;;;;;90.63;53.37;;;5.90;99.90;;;;;;5070558;28;37508;-81
2022/01/25 13:06:37;;;;;;;84.27;50.40;;;5.90;99.90;;;;;;5061311;27;37528;-80
2022/01/25 13:09:15;;;;;;;87.77;51.23;;;5.80;99.90;;;;;;5054651;28;40199;-79
2022/01/25 13:14:19;;;;;;;85.73;51.90;;;5.90;99.90;;;;;;5075902;28;38207;-79
2022/01/25 13:16:52;;;;;;;85.72;52.03;;;5.90;99.90;;;;;;5056074;28;39525;-79
2022/01/25 13:19:20;;;;;;;83.37;49.97;;;5.90;99.90;;;;;;5078202;28;39427;-79
2022/01/25 13:21:54;;;;;;;82.30;49.23;;;6.00;99.90;;;;;;5070822;28;37836;-79
2022/01/25 13:24:23;;;;;;;84.53;50.83;;;6.00;99.90;;;;;;5066757;28;38818;-79
2022/01/25 13:27:03;;;;;;;81.47;49.87;;;5.90;99.90;;;;;;5059695;28;37867;-79
2022/01/25 13:32:30;;;;;;;81.10;47.03;;;5.90;99.90;;;;;;5070651;27;38907;-79
2022/01/25 13:35:02;;;;;;;82.07;49.00;;;6.00;99.90;;;;;;5077415;28;39755;-79
2022/01/25 13:37:28;;;;;;;83.23;50.40;;;6.00;99.90;;;;;;5070499;27;48977;-79
2022/01/25 13:39:59;;;;;;;80.47;49.60;;;6.00;99.90;;;;;;5070584;28;38888;-77
2022/01/25 13:42:40;;;;;;;85.13;51.30;;;6.10;99.90;;;;;;5067710;28;39155;-79
2022/01/25 13:48:06;;;;;;;83.20;48.57;;;6.00;99.90;;;;;;5071948;27;38361;-79
2022/01/25 13:50:34;;;;;;;86.77;52.83;;;6.00;99.90;;;;;;5060419;28;39981;-79
2022/01/25 13:53:02;;;;;;;90.43;52.43;;;5.90;99.90;;;;;;5079583;27;38904;-80
2022/01/25 13:55:28;;;;;;;90.20;54.13;;;5.90;99.90;;;;;;5072787;28;49224;-79
2022/01/25 13:57:55;;;;;;;90.70;53.97;;;5.70;99.90;;;;;;5053454;28;37619;-79
2022/01/25 14:00:22;;;;;;;93.00;54.50;;;5.80;99.90;;;;;;5079833;28;39345;-79
2022/01/25 14:02:51;;;;;;;89.67;54.20;;;5.80;99.90;;;;;;5076849;27;39401;-79
2022/01/25 14:05:18;;;;;;;92.77;53.00;;;5.70;99.90;;;;;;5054962;28;40145;-79
2022/01/25 14:07:50;;;;;;;85.93;52.20;;;5.70;99.90;;;;;;5078155;27;37769;-79
2022/01/25 14:10:23;;;;;;;88.63;53.23;;;5.60;99.90;;;;;;5075700;27;38978;-79
2022/01/25 14:23:52;;;;;;;92.00;53.90;;;5.40;99.90;;;;;;5081263;27;39487;-79
2022/01/25 14:26:19;;;;;;;94.87;53.30;;;5.40;99.90;;;;;;5054261;28;41174;-79
2022/01/25 14:28:54;;;;;;;100.27;55.43;;;5.30;99.90;;;;;;5061171;28;38272;-79
2022/01/25 14:31:23;;;;;;;91.33;52.33;;;5.20;99.90;;;;;;5059447;28;39796;-79
2022/01/25 14:33:55;;;;;;;93.00;52.23;;;5.20;99.90;;;;;;5071884;27;38369;-79
2022/01/25 14:36:24;;;;;;;92.75;54.03;;;5.30;99.90;;;;;;5074739;28;38680;-79